createdAt,value
2023-03-06T00:00:02.853Z,99686.04
2023-03-06T00:02:39.875Z,99692.00
2023-03-06T00:05:18.043Z,99689.88
2023-03-06T00:07:54.760Z,99692.48
2023-03-06T00:10:33.828Z,99691.31
2023-03-06T00:13:15.273Z,99692.83
2023-03-06T00:15:52.884Z,99691.69
2023-03-06T00:18:29.847Z,99692.52
2023-03-06T00:21:10.067Z,99691.04
2023-03-06T00:23:47.599Z,99695.33
2023-03-06T00:26:24.615Z,99693.64
2023-03-06T00:28:55.216Z,99697.09
2023-03-06T00:31:30.477Z,99694.57
2023-03-06T00:34:08.512Z,99697.55
2023-03-06T00:36:45.091Z,99697.61
2023-03-06T00:39:22.552Z,99700.68
2023-03-06T00:41:59.951Z,99685.67
2023-03-06T00:44:36.733Z,99698.40
2023-03-06T00:47:13.900Z,99695.82
2023-03-06T00:49:50.147Z,99696.88
2023-03-06T00:52:27.146Z,99697.84
2023-03-06T00:55:03.784Z,99695.13
2023-03-06T00:57:33.939Z,99693.21
2023-03-06T01:00:10.930Z,99693.40
2023-03-06T01:02:46.136Z,99694.83
2023-03-06T01:05:24.204Z,99691.54
2023-03-06T01:08:01.573Z,99688.79
2023-03-06T01:10:40.815Z,99684.96
2023-03-06T01:13:18.090Z,99685.34
2023-03-06T01:15:54.696Z,99683.99
2023-03-06T01:18:31.783Z,99687.14
2023-03-06T01:21:08.951Z,99685.54
2023-03-06T01:23:46.698Z,99686.70
2023-03-06T01:26:17.067Z,99687.61
2023-03-06T01:28:52.009Z,99689.59
2023-03-06T01:31:29.052Z,99686.69
2023-03-06T01:34:06.949Z,99685.48
2023-03-06T01:36:43.717Z,99686.10
2023-03-06T01:39:20.126Z,99683.34
2023-03-06T01:41:57.136Z,99680.36
2023-03-06T01:44:34.719Z,99677.97
2023-03-06T01:47:11.815Z,99676.52
2023-03-06T01:49:48.941Z,99673.44
2023-03-06T01:52:29.186Z,99677.45
2023-03-06T01:55:15.432Z,99671.36
2023-03-06T01:57:57.958Z,99671.55
2023-03-06T02:00:35.944Z,99669.28
2023-03-06T02:03:14.072Z,99666.13
2023-03-06T02:05:51.530Z,99667.45
2023-03-06T02:08:31.552Z,99666.45
2023-03-06T02:11:26.257Z,99669.59
2023-03-06T02:14:03.506Z,99671.30
2023-03-06T02:16:41.173Z,99669.41
2023-03-06T02:19:55.006Z,99671.85
2023-03-06T02:22:45.934Z,99671.24
2023-03-06T02:25:40.101Z,99669.52
2023-03-06T02:28:17.303Z,99669.45
2023-03-06T02:30:51.640Z,99667.84
2023-03-06T02:33:30.960Z,99665.61
2023-03-06T02:36:15.184Z,99666.38
2023-03-06T02:38:53.222Z,99666.06
2023-03-06T02:41:30.046Z,99663.48
2023-03-06T02:44:07.253Z,99666.56
2023-03-06T02:46:44.462Z,99662.54
2023-03-06T02:49:22.100Z,99665.63
2023-03-06T02:51:59.071Z,99662.38
2023-03-06T02:54:35.964Z,99666.83
2023-03-06T02:57:13.185Z,99664.39
2023-03-06T02:59:49.855Z,99661.96
2023-03-06T03:02:27.478Z,99663.10
2023-03-06T03:04:58.015Z,99660.92
2023-03-06T03:07:33.611Z,99662.08
2023-03-06T03:10:11.585Z,99663.16
2023-03-06T03:12:48.838Z,99668.96
2023-03-06T03:15:25.774Z,99669.77
2023-03-06T03:18:02.448Z,99662.56
2023-03-06T03:20:39.685Z,99662.48
2023-03-06T03:23:16.832Z,99660.04
2023-03-06T03:25:54.257Z,99661.78
2023-03-06T03:28:31.137Z,99661.21
2023-03-06T03:31:08.234Z,99647.95
2023-03-06T03:33:40.251Z,99663.30
2023-03-06T03:36:14.860Z,99661.95
2023-03-06T03:38:52.580Z,99659.06
2023-03-06T03:41:29.761Z,99658.48
2023-03-06T03:44:07.213Z,99655.27
2023-03-06T03:46:43.833Z,99658.20
2023-03-06T03:49:20.404Z,99658.23
2023-03-06T03:51:57.307Z,99654.06
2023-03-06T03:54:34.335Z,99652.04
2023-03-06T03:57:10.967Z,99651.56
2023-03-06T03:59:50.033Z,99650.63
2023-03-06T04:02:22.839Z,99650.12
2023-03-06T04:04:56.757Z,99647.48
2023-03-06T04:07:34.206Z,99647.09
2023-03-06T04:10:14.615Z,99644.92
2023-03-06T04:12:51.513Z,99641.88
2023-03-06T04:15:27.579Z,99645.00
2023-03-06T04:18:05.008Z,99641.39
2023-03-06T04:20:42.265Z,99642.38
2023-03-06T04:23:19.322Z,99641.05
2023-03-06T04:25:56.807Z,99640.34
2023-03-06T04:28:28.282Z,99644.81
2023-03-06T04:30:59.633Z,99644.77
2023-03-06T04:33:36.454Z,99642.12
2023-03-06T04:36:30.892Z,99639.38
2023-03-06T04:39:08.872Z,99636.95
2023-03-06T04:41:41.106Z,99638.30
2023-03-06T04:44:16.909Z,99633.91
2023-03-06T04:46:54.480Z,99631.56
2023-03-06T04:49:31.230Z,99633.23
2023-03-06T04:52:08.468Z,99630.52
2023-03-06T04:54:46.569Z,99630.70
2023-03-06T04:57:22.999Z,99632.27
2023-03-06T04:59:59.633Z,99630.11
2023-03-06T05:02:37.260Z,99626.97
2023-03-06T05:05:15.819Z,99627.20
2023-03-06T05:07:52.450Z,99625.14
2023-03-06T05:10:29.755Z,99626.19
2023-03-06T05:12:59.722Z,99627.08
2023-03-06T05:15:37.210Z,99625.52
2023-03-06T05:18:13.981Z,99629.85
2023-03-06T05:20:51.093Z,99629.25
2023-03-06T05:23:21.523Z,99627.14
2023-03-06T05:25:58.358Z,99629.58
2023-03-06T05:28:35.173Z,99623.30
2023-03-06T05:31:12.121Z,99625.88
2023-03-06T05:33:43.001Z,99621.61
2023-03-06T05:36:18.509Z,99625.34
2023-03-06T05:38:55.300Z,99625.43
2023-03-06T05:41:32.432Z,99622.84
2023-03-06T05:44:04.436Z,99628.21
2023-03-06T05:46:36.146Z,99622.90
2023-03-06T05:49:06.417Z,99624.02
2023-03-06T05:51:39.113Z,99626.35
2023-03-06T05:54:16.657Z,99628.64
2023-03-06T05:56:54.127Z,99627.81
2023-03-06T05:59:33.664Z,99633.00
2023-03-06T06:02:08.951Z,99630.39
2023-03-06T06:04:39.617Z,99628.26
2023-03-06T06:07:20.018Z,99629.95
2023-03-06T06:09:55.188Z,99624.73
2023-03-06T06:12:27.891Z,99621.65
2023-03-06T06:14:59.366Z,99619.35
2023-03-06T06:17:36.741Z,99616.76
2023-03-06T06:20:15.111Z,99615.85
2023-03-06T06:22:51.378Z,99616.06
2023-03-06T06:25:27.966Z,99616.49
2023-03-06T06:28:05.028Z,99615.01
2023-03-06T06:30:42.397Z,99614.03
2023-03-06T06:33:20.246Z,99616.36
2023-03-06T06:35:53.124Z,99619.27
2023-03-06T06:38:24.166Z,99618.46
2023-03-06T06:41:32.972Z,99621.38
2023-03-06T06:43:51.041Z,99625.81
2023-03-06T06:47:05.838Z,99621.35
2023-03-06T06:49:22.101Z,99624.13
2023-03-06T06:51:53.017Z,99626.18
2023-03-06T06:54:25.361Z,99628.03
2023-03-06T06:57:01.413Z,99623.74
2023-03-06T06:59:39.806Z,99624.70
2023-03-06T07:02:19.958Z,99625.32
2023-03-06T07:05:04.273Z,99627.48
2023-03-06T07:07:42.273Z,99622.37
2023-03-06T07:10:21.047Z,99623.29
2023-03-06T07:12:58.475Z,99622.65
2023-03-06T07:15:35.464Z,99618.73
2023-03-06T07:18:13.273Z,99618.48
2023-03-06T07:20:50.439Z,99615.73
2023-03-06T07:23:27.775Z,99610.81
2023-03-06T07:26:05.664Z,99608.34
2023-03-06T07:28:52.266Z,99606.27
2023-03-06T07:31:33.193Z,99602.58
2023-03-06T07:34:14.248Z,99597.05
2023-03-06T07:36:51.598Z,99591.42
2023-03-06T07:39:30.497Z,99592.64
2023-03-06T07:42:08.170Z,99598.24
2023-03-06T07:44:45.241Z,99606.05
2023-03-06T07:47:22.452Z,99605.43
2023-03-06T07:50:05.087Z,99608.50
2023-03-06T07:52:42.886Z,99603.70
2023-03-06T07:55:20.802Z,99601.79
2023-03-06T07:57:57.708Z,99604.33
2023-03-06T08:00:29.210Z,99596.30
2023-03-06T08:03:04.148Z,99595.76
2023-03-06T08:05:41.275Z,99595.67
2023-03-06T08:08:18.802Z,99595.98
2023-03-06T08:10:55.935Z,99597.39
2023-03-06T08:13:33.040Z,99599.83
2023-03-06T08:16:11.623Z,99600.36
2023-03-06T08:18:49.807Z,99602.70
2023-03-06T08:21:29.325Z,99600.28
2023-03-06T08:24:07.560Z,99601.01
2023-03-06T08:26:47.456Z,99603.17
2023-03-06T08:29:24.732Z,99605.60
2023-03-06T08:32:02.258Z,99607.35
2023-03-06T08:34:41.569Z,99606.16
2023-03-06T08:37:19.078Z,99605.05
2023-03-06T08:39:56.416Z,99603.05
2023-03-06T08:42:29.207Z,99604.09
2023-03-06T08:45:06.534Z,99601.09
2023-03-06T08:47:45.312Z,99597.87
2023-03-06T08:50:23.102Z,99599.38
2023-03-06T08:52:55.748Z,99595.55
2023-03-06T08:55:33.055Z,99593.23
2023-03-06T08:58:10.923Z,99593.80
2023-03-06T09:00:48.446Z,99592.52
2023-03-06T09:03:26.893Z,99585.75
2023-03-06T09:06:04.559Z,99581.54
2023-03-06T09:08:45.155Z,99579.14
2023-03-06T09:11:24.265Z,99578.51
2023-03-06T09:14:01.467Z,99578.23
2023-03-06T09:16:39.777Z,99575.35
2023-03-06T09:19:15.611Z,99571.05
2023-03-06T09:21:46.995Z,99572.00
2023-03-06T09:24:24.306Z,99576.27
2023-03-06T09:27:02.433Z,99578.33
2023-03-06T09:29:41.346Z,99574.45
2023-03-06T09:32:12.886Z,99580.14
2023-03-06T09:34:52.947Z,99580.20
2023-03-06T09:37:31.342Z,99576.52
2023-03-06T09:40:07.943Z,99577.77
2023-03-06T09:42:46.802Z,99576.58
2023-03-06T09:45:25.269Z,99574.74
2023-03-06T09:48:18.542Z,99573.84
2023-03-06T09:51:16.185Z,99567.04
2023-03-06T09:54:18.844Z,99568.55
2023-03-06T09:56:58.047Z,99566.10
2023-03-06T09:59:36.462Z,99558.52
2023-03-06T10:02:45.344Z,99558.78
2023-03-06T10:05:33.885Z,99556.02
2023-03-06T10:08:31.832Z,99554.73
2023-03-06T10:11:12.318Z,99551.87
2023-03-06T10:14:08.490Z,99543.23
2023-03-06T10:16:49.095Z,99546.94
2023-03-06T10:19:35.962Z,99545.39
2023-03-06T10:22:24.917Z,99546.84
2023-03-06T10:25:30.507Z,99546.42
2023-03-06T10:28:26.824Z,99540.26
2023-03-06T10:31:28.763Z,99542.40
2023-03-06T10:34:19.481Z,99541.96
2023-03-06T10:37:00.336Z,99541.71
2023-03-06T10:39:38.540Z,99543.92
2023-03-06T10:42:18.792Z,99539.14
2023-03-06T10:45:20.534Z,99538.77
2023-03-06T10:48:15.074Z,99538.36
2023-03-06T10:50:55.836Z,99538.39
2023-03-06T10:53:34.694Z,99532.56
2023-03-06T10:56:14.064Z,99531.93
2023-03-06T10:59:07.034Z,99534.23
2023-03-06T11:01:51.083Z,99531.38
2023-03-06T11:04:29.579Z,99524.20
2023-03-06T11:07:21.463Z,99528.09
2023-03-06T11:10:21.749Z,99520.64
2023-03-06T11:13:08.465Z,99519.89
2023-03-06T11:16:01.850Z,99514.21
2023-03-06T11:18:44.050Z,99509.05
2023-03-06T11:21:41.273Z,99501.51
2023-03-06T11:24:26.041Z,99499.30
2023-03-06T11:27:18.084Z,99489.80
2023-03-06T11:29:57.343Z,99485.63
2023-03-06T11:32:55.800Z,99482.13
2023-03-06T11:35:55.337Z,99483.25
2023-03-06T11:38:55.244Z,99476.14
2023-03-06T11:42:15.061Z,99470.05
2023-03-06T11:45:26.102Z,99469.77
2023-03-06T11:48:27.155Z,99470.11
2023-03-06T11:51:33.306Z,99473.97
2023-03-06T11:54:15.099Z,99469.09
2023-03-06T11:57:13.500Z,99468.73
2023-03-06T12:00:18.336Z,99464.13
2023-03-06T12:03:37.377Z,99458.50
2023-03-06T12:06:59.949Z,99458.58
2023-03-06T12:09:51.877Z,99452.88
2023-03-06T12:12:53.916Z,99451.69
2023-03-06T12:16:08.081Z,99455.67
2023-03-06T12:19:36.550Z,99455.64
2023-03-06T12:22:31.161Z,99453.11
2023-03-06T12:25:26.862Z,99448.64
2023-03-06T12:28:40.692Z,99446.69
2023-03-06T12:31:39.179Z,99446.73
2023-03-06T12:34:46.884Z,99443.51
2023-03-06T12:37:25.405Z,99449.86
2023-03-06T12:40:55.019Z,99446.45
2023-03-06T12:44:16.337Z,99441.46
2023-03-06T12:47:10.440Z,99439.13
2023-03-06T12:50:01.983Z,99440.48
2023-03-06T12:52:37.912Z,99439.82
2023-03-06T12:55:20.399Z,99435.42
2023-03-06T12:57:57.083Z,99434.80
2023-03-06T13:00:36.432Z,99427.41
2023-03-06T13:04:03.386Z,99426.27
2023-03-06T13:07:09.771Z,99422.80
2023-03-06T13:10:20.873Z,99417.14
2023-03-06T13:12:58.573Z,99418.30
2023-03-06T13:15:48.229Z,99415.05
2023-03-06T13:18:33.731Z,99415.77
2023-03-06T13:21:06.545Z,99412.14
2023-03-06T13:23:53.211Z,99409.51
2023-03-06T13:26:33.633Z,99403.66
2023-03-06T13:29:40.755Z,99401.27
2023-03-06T13:32:30.605Z,99394.61
2023-03-06T13:35:37.549Z,99399.30
2023-03-06T13:38:36.309Z,99393.71
2023-03-06T13:41:35.972Z,99391.96
2023-03-06T13:44:27.612Z,99391.09
2023-03-06T13:47:29.374Z,99391.55
2023-03-06T13:50:29.366Z,99388.64
2023-03-06T13:54:01.151Z,99385.88
2023-03-06T13:57:13.844Z,99385.66
2023-03-06T14:00:09.651Z,99388.90
2023-03-06T14:03:32.989Z,99386.70
2023-03-06T14:06:36.845Z,99380.27
2023-03-06T14:09:42.924Z,99384.47
2023-03-06T14:12:27.061Z,99379.43
2023-03-06T14:15:24.597Z,99378.34
2023-03-06T14:18:35.499Z,99368.15
2023-03-06T14:21:26.416Z,99366.50
2023-03-06T14:24:17.011Z,99369.96
2023-03-06T14:26:58.800Z,99363.86
2023-03-06T14:29:36.662Z,99365.48
2023-03-06T14:32:23.748Z,99363.55
2023-03-06T14:35:01.401Z,99363.38
2023-03-06T14:37:41.050Z,99361.20
2023-03-06T14:40:27.460Z,99359.86
2023-03-06T14:43:39.729Z,99358.95
2023-03-06T14:46:24.193Z,99355.13
2023-03-06T14:49:08.553Z,99356.30
2023-03-06T14:51:52.356Z,99354.56
2023-03-06T14:54:37.340Z,99359.64
2023-03-06T14:57:21.106Z,99356.11
2023-03-06T15:00:02.059Z,99352.73
2023-03-06T15:02:38.684Z,99354.71
2023-03-06T15:05:34.507Z,99352.25
2023-03-06T15:08:11.183Z,99348.60
2023-03-06T15:10:55.693Z,99347.38
2023-03-06T15:13:36.210Z,99344.52
2023-03-06T15:16:22.795Z,99343.34
2023-03-06T15:19:06.285Z,99342.58
2023-03-06T15:21:47.315Z,99345.42
2023-03-06T15:24:38.046Z,99342.67
2023-03-06T15:27:28.696Z,99343.73
2023-03-06T15:30:37.097Z,99340.56
2023-03-06T15:33:20.260Z,99339.42
2023-03-06T15:36:07.714Z,99335.60
2023-03-06T15:38:46.340Z,99337.85
2023-03-06T15:41:34.657Z,99337.88
2023-03-06T15:44:14.986Z,99334.73
2023-03-06T15:46:45.567Z,99325.85
2023-03-06T15:49:21.092Z,99327.31
2023-03-06T15:51:58.197Z,99334.30
2023-03-06T15:54:35.793Z,99335.06
2023-03-06T15:57:25.724Z,99334.58
2023-03-06T16:00:02.667Z,99334.23
2023-03-06T16:02:38.125Z,99332.20
2023-03-06T16:05:19.108Z,99333.59
2023-03-06T16:07:57.394Z,99332.06
2023-03-06T16:10:37.758Z,99337.27
2023-03-06T16:13:26.521Z,99341.23
2023-03-06T16:15:58.916Z,99345.69
2023-03-06T16:18:31.521Z,99344.23
2023-03-06T16:21:11.011Z,99344.35
2023-03-06T16:23:44.598Z,99342.62
2023-03-06T16:26:37.312Z,99345.71
2023-03-06T16:29:25.386Z,99343.16
2023-03-06T16:32:01.990Z,99340.35
2023-03-06T16:34:39.088Z,99343.13
2023-03-06T16:37:17.540Z,99340.18
2023-03-06T16:39:47.965Z,99343.90
2023-03-06T16:42:18.946Z,99339.98
2023-03-06T16:44:50.029Z,99341.27
2023-03-06T16:47:21.588Z,99342.98
2023-03-06T16:50:02.337Z,99345.28
2023-03-06T16:52:32.801Z,99346.04
2023-03-06T16:55:11.995Z,99347.52
2023-03-06T16:57:46.698Z,99343.97
2023-03-06T17:00:19.982Z,99342.86
2023-03-06T17:03:00.208Z,99346.89
2023-03-06T17:05:36.647Z,99346.41
2023-03-06T17:08:07.642Z,99343.58
2023-03-06T17:10:42.351Z,99346.61
2023-03-06T17:13:19.964Z,99345.16
2023-03-06T17:15:59.882Z,99346.96
2023-03-06T17:18:31.665Z,99346.56
2023-03-06T17:21:12.156Z,99343.25
2023-03-06T17:23:44.094Z,99341.66
2023-03-06T17:26:24.103Z,99344.52
2023-03-06T17:28:56.468Z,99345.89
2023-03-06T17:31:29.087Z,99347.32
2023-03-06T17:34:01.850Z,99348.86
2023-03-06T17:36:33.132Z,99349.20
2023-03-06T17:39:11.038Z,99351.08
2023-03-06T17:41:41.705Z,99353.52
2023-03-06T17:44:12.864Z,99348.70
2023-03-06T17:46:47.168Z,99347.33
2023-03-06T17:49:23.763Z,99345.52
2023-03-06T17:52:03.412Z,99346.75
2023-03-06T17:54:41.256Z,99346.92
2023-03-06T17:57:18.669Z,99350.17
2023-03-06T17:59:50.467Z,99349.29
2023-03-06T18:02:29.906Z,99351.27
2023-03-06T18:05:08.827Z,99346.29
2023-03-06T18:07:39.860Z,99346.66
2023-03-06T18:10:12.000Z,99340.48
2023-03-06T18:12:42.371Z,99340.52
2023-03-06T18:15:20.662Z,99338.33
2023-03-06T18:17:59.757Z,99340.73
2023-03-06T18:20:37.387Z,99338.71
2023-03-06T18:23:15.219Z,99337.77
2023-03-06T18:25:47.659Z,99338.48
2023-03-06T18:28:18.507Z,99341.48
2023-03-06T18:30:49.735Z,99344.68
2023-03-06T18:33:22.934Z,99343.30
2023-03-06T18:36:02.308Z,99349.17
2023-03-06T18:38:40.833Z,99345.39
2023-03-06T18:41:24.336Z,99341.21
2023-03-06T18:44:03.926Z,99344.09
2023-03-06T18:46:42.916Z,99346.91
2023-03-06T18:49:22.527Z,99344.41
2023-03-06T18:52:00.882Z,99347.29
2023-03-06T18:54:38.630Z,99345.98
2023-03-06T18:57:16.904Z,99341.38
2023-03-06T18:59:49.214Z,99339.20
2023-03-06T19:02:28.045Z,99337.61
2023-03-06T19:04:59.909Z,99332.14
2023-03-06T19:07:41.270Z,99334.87
2023-03-06T19:10:13.139Z,99331.46
2023-03-06T19:12:46.641Z,99332.52
2023-03-06T19:15:23.950Z,99331.29
2023-03-06T19:18:02.058Z,99326.77
2023-03-06T19:20:39.757Z,99329.47
2023-03-06T19:23:17.874Z,99326.71
2023-03-06T19:26:04.146Z,99325.27
2023-03-06T19:28:43.001Z,99326.03
2023-03-06T19:31:26.542Z,99326.30
2023-03-06T19:34:04.033Z,99323.97
2023-03-06T19:36:43.876Z,99328.38
2023-03-06T19:39:22.447Z,99329.73
2023-03-06T19:41:54.488Z,99326.55
2023-03-06T19:44:33.658Z,99324.94
2023-03-06T19:47:11.654Z,99321.95
2023-03-06T19:49:49.559Z,99323.48
2023-03-06T19:52:27.285Z,99321.38
2023-03-06T19:54:57.617Z,99307.50
2023-03-06T19:57:28.066Z,99318.19
2023-03-06T20:00:05.200Z,99317.09
2023-03-06T20:02:43.140Z,99320.50
2023-03-06T20:05:20.784Z,99318.31
2023-03-06T20:07:51.459Z,99323.44
2023-03-06T20:10:29.574Z,99321.66
2023-03-06T20:13:07.860Z,99320.55
2023-03-06T20:15:39.526Z,99321.75
2023-03-06T20:18:11.185Z,99324.39
2023-03-06T20:20:41.789Z,99321.55
2023-03-06T20:23:19.327Z,99322.77
2023-03-06T20:25:50.030Z,99322.63
2023-03-06T20:28:27.820Z,99319.46
2023-03-06T20:31:11.653Z,99320.81
2023-03-06T20:33:49.140Z,99319.91
2023-03-06T20:36:29.536Z,99321.32
2023-03-06T20:39:09.244Z,99319.86
2023-03-06T20:41:42.908Z,99326.02
2023-03-06T20:44:23.346Z,99321.67
2023-03-06T20:47:00.396Z,99325.19
2023-03-06T20:49:30.722Z,99325.55
2023-03-06T20:52:01.108Z,99322.57
2023-03-06T20:54:38.170Z,99324.33
2023-03-06T20:57:14.773Z,99324.42
2023-03-06T20:59:45.965Z,99322.82
2023-03-06T21:02:23.339Z,99324.52
2023-03-06T21:04:53.922Z,99324.19
2023-03-06T21:07:27.290Z,99321.94
2023-03-06T21:10:03.846Z,99322.95
2023-03-06T21:12:34.361Z,99320.31
2023-03-06T21:15:13.362Z,99310.02
2023-03-06T21:17:44.585Z,99319.91
2023-03-06T21:20:22.231Z,99319.77
2023-03-06T21:22:53.393Z,99318.66
2023-03-06T21:25:28.939Z,99320.78
2023-03-06T21:28:00.871Z,99321.73
2023-03-06T21:30:37.791Z,99317.63
2023-03-06T21:33:16.481Z,99316.80
2023-03-06T21:35:47.679Z,99311.68
2023-03-06T21:38:18.126Z,99312.02
2023-03-06T21:40:48.439Z,99315.16
2023-03-06T21:43:25.946Z,99313.62
2023-03-06T21:46:03.945Z,99312.23
2023-03-06T21:48:41.130Z,99311.21
2023-03-06T21:51:19.761Z,99315.84
2023-03-06T21:53:52.209Z,99317.00
2023-03-06T21:56:25.846Z,99310.61
2023-03-06T21:59:02.923Z,99315.84
2023-03-06T22:01:33.668Z,99319.75
2023-03-06T22:04:09.624Z,99323.73
2023-03-06T22:06:46.521Z,99322.67
2023-03-06T22:09:24.364Z,99325.53
2023-03-06T22:11:55.213Z,99323.10
2023-03-06T22:14:31.954Z,99330.13
2023-03-06T22:17:09.721Z,99326.30
2023-03-06T22:19:40.963Z,99333.61
2023-03-06T22:22:12.604Z,99332.25
2023-03-06T22:24:49.103Z,99334.69
2023-03-06T22:27:26.416Z,99331.98
2023-03-06T22:29:56.561Z,99335.02
2023-03-06T22:32:26.863Z,99333.80
2023-03-06T22:34:57.197Z,99336.27
2023-03-06T22:37:29.968Z,99336.98
2023-03-06T22:40:01.085Z,99335.95
2023-03-06T22:42:39.930Z,99340.02
2023-03-06T22:45:12.517Z,99344.23
2023-03-06T22:47:50.820Z,99340.98
2023-03-06T22:50:29.317Z,99342.94
2023-03-06T22:52:59.754Z,99347.58
2023-03-06T22:55:30.924Z,99353.23
2023-03-06T22:58:02.462Z,99350.79
2023-03-06T23:00:39.929Z,99354.83
2023-03-06T23:03:17.470Z,99359.42
2023-03-06T23:05:47.866Z,99358.61
2023-03-06T23:08:26.084Z,99360.69
2023-03-06T23:11:01.952Z,99357.67
2023-03-06T23:13:32.969Z,99359.88
2023-03-06T23:16:07.407Z,99360.40
2023-03-06T23:18:39.559Z,99360.14
2023-03-06T23:21:19.067Z,99359.88
2023-03-06T23:23:54.513Z,99364.98
2023-03-06T23:26:34.664Z,99367.18
2023-03-06T23:29:05.087Z,99374.25
2023-03-06T23:31:43.085Z,99371.08
2023-03-06T23:34:16.046Z,99373.64
2023-03-06T23:36:47.615Z,99377.44
2023-03-06T23:39:24.691Z,99380.55
2023-03-06T23:41:54.826Z,99387.17
2023-03-06T23:44:25.050Z,99382.89
2023-03-06T23:46:55.396Z,99386.73
2023-03-06T23:49:29.666Z,99387.62
2023-03-06T23:52:00.214Z,99389.21
2023-03-06T23:54:38.520Z,99389.07
2023-03-06T23:57:15.643Z,99392.85
2023-03-06T23:59:52.897Z,99391.46
